Accueil
METAR-TAF:

METAR-TAF

Aéroports :

Kwethluk, Alaska, États-Unis

latitude: 60-47-25N, longitude: 161-26-37W, altitude: 9 m

Observation

Le bulletin a été fait il y a 39 minutes, à 22:56 UTC
Vent 11 kt de nord avec des rafales jusqu'à 19 kt
Température -27°C
Humidité 62%
Pression 1004 hPa
Visibilité: 16.1 km
Ciel clair

METAR: PFKW 282256Z AUTO 01011G19KT 10SM CLR M27/M32 A2965 RMK AO2 SLP042 T12671317 FZRANO

Heure: 14:35 (23:35 UTC)


TAF: absent

Observations et prévisions météorologiques de plus de 4000 aéroports (messages METAR et TAF).

Les stations disponibles sont représentées par des disques jaunes et rouges sur la carte.

Passer la souris dessus pour voir le nom de la station.

Cliquer dessus pour voir les observations et prévisions météorologiques.

Pour changer de carte: cliquez sur les boutons verts avec une croix noire pour zoomer, sur le bouton vert avec un tiret pour effectuer un zoom arrière, ou sur les flèches vertes pour les cartes adjacentes.


METAR-TAF: